Time;durP1;ratioP1;P1;durP2;ratioP2;P2;SDS_P1;SDS_P2;PMS_P1;PMS_P2;Temp;Humidity;BMP_temperature;BMP_pressure;BME280_temperature;BME280_humidity;BME280_pressure;Samples;Min_cycle;Max_cycle;Signal;HPM_P1;HPM_P2
2022/09/03 00:00:53;;;;;;;5.47;1.67;;;;;;;13.53;44.47;101320.47;4994651;28;20132;-69
2022/09/03 00:03:43;;;;;;;1.40;1.15;;;;;;;13.44;44.71;101322.28;5031928;28;20181;-68
2022/09/03 00:06:16;;;;;;;6.07;2.22;;;;;;;13.48;44.46;101317.41;5031500;28;20120;-68
2022/09/03 00:08:49;;;;;;;4.50;1.83;;;;;;;13.40;44.56;101315.53;5031304;28;20073;-68
2022/09/03 00:11:24;;;;;;;4.57;1.70;;;;;;;13.40;44.83;101318.22;5027462;28;20140;-68
2022/09/03 00:14:06;;;;;;;5.20;1.40;;;;;;;13.33;44.68;101312.66;5031595;28;20048;-68
2022/09/03 00:16:44;;;;;;;6.25;1.83;;;;;;;13.44;44.71;101311.50;5031036;28;20544;-68
2022/09/03 00:19:16;;;;;;;4.72;1.63;;;;;;;13.38;44.87;101317.53;5031744;28;20129;-68
2022/09/03 00:21:47;;;;;;;8.57;1.60;;;;;;;13.40;44.84;101314.69;5031457;28;20400;-68
2022/09/03 00:24:18;;;;;;;5.30;1.92;;;;;;;13.33;45.09;101312.66;5023315;28;20062;-68
2022/09/03 00:26:53;;;;;;;6.40;1.90;;;;;;;13.37;44.96;101315.88;5032321;28;20059;-69
2022/09/03 00:29:45;;;;;;;4.65;1.60;;;;;;;13.23;45.32;101309.25;5031709;28;20136;-68
2022/09/03 00:32:45;;;;;;;3.28;1.70;;;;;;;13.29;45.13;101316.69;5031373;28;20092;-68
2022/09/03 00:35:46;;;;;;;3.20;1.60;;;;;;;13.20;45.32;101314.97;5007397;28;20387;-68
2022/09/03 00:38:13;;;;;;;6.10;1.55;;;;;;;13.24;45.30;101316.31;5031012;28;20128;-68
2022/09/03 00:41:02;;;;;;;3.75;1.85;;;;;;;13.24;45.38;101308.22;5022021;28;20080;-68
2022/09/03 00:44:03;;;;;;;6.28;1.65;;;;;;;13.26;45.34;101308.94;5011688;28;20053;-68
2022/09/03 00:46:36;;;;;;;3.00;1.67;;;;;;;13.22;45.41;101310.28;5011543;28;20133;-68
2022/09/03 00:49:13;;;;;;;2.58;1.35;;;;;;;13.20;45.34;101308.72;5010464;28;20049;-68
2022/09/03 00:52:05;;;;;;;5.40;1.40;;;;;;;13.04;45.61;101313.06;5012297;28;20438;-68
2022/09/03 00:55:07;;;;;;;5.45;1.40;;;;;;;13.10;45.72;101309.69;5011795;28;20130;-68
2022/09/03 00:57:51;;;;;;;5.63;1.70;;;;;;;12.97;45.72;101305.78;4992870;28;20120;-68
2022/09/03 01:00:19;;;;;;;5.25;2.05;;;;;;;13.04;46.00;101305.00;5012355;28;20077;-68
2022/09/03 01:03:06;;;;;;;4.43;1.42;;;;;;;13.05;46.02;101305.81;5013619;28;20133;-68
2022/09/03 01:09:46;;;;;;;7.20;1.80;;;;;;;12.88;46.38;101300.34;5015313;28;20056;-68
2022/09/03 01:12:31;;;;;;;6.20;2.00;;;;;;;12.83;46.63;101305.41;5015604;28;20172;-68
2022/09/03 01:15:03;;;;;;;3.03;1.30;;;;;;;12.81;46.65;101298.47;5014699;28;20092;-68
2022/09/03 01:17:32;;;;;;;7.70;1.30;;;;;;;12.72;46.96;101299.41;5015363;28;20129;-68
2022/09/03 01:20:21;;;;;;;3.97;1.67;;;;;;;12.70;46.84;101296.88;5015190;28;20144;-68
2022/09/03 01:23:05;;;;;;;6.07;1.70;;;;;;;12.66;46.88;101300.91;5013875;28;20125;-68
2022/09/03 01:26:00;;;;;;;3.78;1.30;;;;;;;12.70;46.85;101299.56;5013861;28;20129;-68
2022/09/03 01:28:41;;;;;;;7.80;1.30;;;;;;;12.63;46.83;101299.38;5014139;28;20096;-68
2022/09/03 01:31:28;;;;;;;4.57;1.30;;;;;;;12.58;47.02;101298.16;5013811;28;20073;-68
2022/09/03 01:34:11;;;;;;;6.10;1.38;;;;;;;12.55;46.96;101293.91;5011710;28;20050;-68
2022/09/03 01:37:05;;;;;;;5.15;1.35;;;;;;;12.65;46.83;101291.13;5015524;28;20145;-68
2022/09/03 01:40:02;;;;;;;6.70;1.38;;;;;;;12.62;46.87;101294.13;5013881;28;20068;-68
2022/09/03 01:42:34;;;;;;;7.97;1.30;;;;;;;12.48;47.15;101286.66;5013821;28;20050;-68
2022/09/03 01:45:22;;;;;;;8.45;1.80;;;;;;;12.55;47.01;101287.69;5029424;28;20191;-68
2022/09/03 01:48:21;;;;;;;4.55;1.67;;;;;;;12.52;46.96;101288.88;5022223;28;20077;-68
2022/09/03 01:51:07;;;;;;;5.50;1.73;;;;;;;12.54;46.76;101275.25;5013987;28;20400;-68
2022/09/03 01:53:51;;;;;;;3.17;1.33;;;;;;;12.69;46.54;101292.47;5014872;28;20133;-68
2022/09/03 01:56:24;;;;;;;3.22;1.15;;;;;;;12.83;46.20;101294.63;5012488;28;20085;-68
2022/09/03 01:59:02;;;;;;;4.40;1.60;;;;;;;12.87;46.17;101290.59;5012651;28;20046;-68
2022/09/03 02:01:55;;;;;;;10.75;1.98;;;;;;;12.75;46.46;101291.03;5012970;28;20130;-68
2022/09/03 02:04:24;;;;;;;5.35;1.48;;;;;;;12.74;46.46;101292.03;5013656;28;20042;-68
2022/09/03 02:06:52;;;;;;;5.55;1.50;;;;;;;12.74;46.34;101292.88;5013460;28;20126;-68
2022/09/03 02:09:20;;;;;;;3.65;1.38;;;;;;;12.70;46.65;101291.50;5017885;28;20073;-68
2022/09/03 02:11:53;;;;;;;5.60;1.60;;;;;;;12.84;46.18;101296.31;5012883;28;20100;-68
2022/09/03 02:14:21;;;;;;;3.00;1.20;;;;;;;12.87;46.36;101287.91;5012532;28;20061;-68
2022/09/03 02:16:49;;;;;;;3.10;1.30;;;;;;;12.58;46.60;101290.91;5012680;28;20042;-68
2022/09/03 02:19:16;;;;;;;2.85;1.45;;;;;;;12.68;46.82;101285.41;5012931;28;20554;-68
2022/09/03 02:21:49;;;;;;;4.63;1.35;;;;;;;12.65;46.88;101296.50;5012086;28;20124;-68
2022/09/03 02:24:17;;;;;;;2.95;1.25;;;;;;;12.60;46.99;101293.47;5013517;28;20041;-68
2022/09/03 02:26:43;;;;;;;3.88;1.30;;;;;;;12.45;47.22;101286.97;5012711;28;20056;-68
2022/09/03 02:29:12;;;;;;;6.57;1.60;;;;;;;12.54;47.17;101292.22;5011703;28;20045;-68
2022/09/03 02:31:39;;;;;;;4.05;1.58;;;;;;;12.57;46.70;101291.91;5012719;28;20157;-68
2022/09/03 02:34:06;;;;;;;2.90;1.10;;;;;;;12.48;47.12;101292.88;5012164;28;20126;-68
2022/09/03 02:36:36;;;;;;;4.30;1.23;;;;;;;12.53;47.01;101289.72;5012522;28;20052;-68
2022/09/03 02:39:04;;;;;;;3.10;1.47;;;;;;;12.30;47.74;101294.78;4995819;28;20128;-68
2022/09/03 02:41:31;;;;;;;2.33;1.27;;;;;;;12.24;47.92;101295.41;5012509;28;20364;-68
2022/09/03 02:44:01;;;;;;;5.78;1.35;;;;;;;12.23;47.52;101294.56;5008801;28;20124;-68
2022/09/03 02:46:49;;;;;;;5.15;1.13;;;;;;;12.54;47.25;101294.09;5014703;28;20046;-68
2022/09/03 02:49:15;;;;;;;5.18;1.63;;;;;;;12.39;47.18;101299.22;5011774;28;20129;-68
2022/09/03 02:51:43;;;;;;;4.05;1.75;;;;;;;12.20;47.68;101297.56;5020553;28;20124;-68
2022/09/03 02:54:11;;;;;;;5.20;1.40;;;;;;;12.07;47.97;101299.81;5033045;28;20073;-68
2022/09/03 02:56:37;;;;;;;1.73;1.00;;;;;;;11.98;48.16;101301.59;5031910;28;20569;-68
2022/09/03 02:59:07;;;;;;;7.18;2.25;;;;;;;11.97;48.20;101299.03;5032036;28;20052;-68
2022/09/03 03:01:35;;;;;;;8.07;1.60;;;;;;;12.11;48.26;101302.03;5031728;28;20128;-68
2022/09/03 03:04:02;;;;;;;5.65;1.50;;;;;;;11.93;48.50;101299.38;5031922;28;20381;-68
2022/09/03 03:06:29;;;;;;;6.60;1.73;;;;;;;11.98;48.29;101296.22;5031136;28;20124;-68
2022/09/03 03:08:55;;;;;;;3.15;1.30;;;;;;;11.78;48.77;101295.53;5014143;28;20042;-68
2022/09/03 03:11:25;;;;;;;4.90;1.83;;;;;;;11.82;48.64;101285.31;5012305;28;20048;-68
2022/09/03 03:13:52;;;;;;;5.45;1.45;;;;;;;11.76;48.83;101285.94;5011899;28;20565;-70
2022/09/03 03:16:18;;;;;;;6.70;1.40;;;;;;;11.89;48.58;101297.13;5011300;28;20557;-68
2022/09/03 03:18:45;;;;;;;6.18;1.58;;;;;;;12.02;48.31;101291.38;5013376;28;20136;-68
2022/09/03 03:21:14;;;;;;;3.72;1.15;;;;;;;11.76;48.98;101297.53;5031252;28;20493;-68
2022/09/03 03:23:41;;;;;;;7.43;1.17;;;;;;;11.86;48.54;101294.75;5013829;28;20052;-68
2022/09/03 03:26:10;;;;;;;2.80;1.60;;;;;;;12.00;48.09;101296.88;5011673;28;20561;-68
2022/09/03 03:28:37;;;;;;;7.57;1.95;;;;;;;11.90;48.35;101297.00;5002891;28;20048;-68
2022/09/03 03:31:06;;;;;;;3.00;2.20;;;;;;;11.79;48.68;101304.44;5027346;28;20140;-68
2022/09/03 03:33:33;;;;;;;3.83;1.30;;;;;;;11.86;48.47;101301.00;5011851;28;20074;-68
2022/09/03 03:36:13;;;;;;;2.92;1.42;;;;;;;11.71;49.08;101301.69;5014433;28;20109;-68
2022/09/03 03:38:42;;;;;;;1.75;1.35;;;;;;;11.87;48.37;101305.38;5012651;28;20052;-68
2022/09/03 03:41:21;;;;;;;3.78;1.42;;;;;;;11.52;49.28;101310.69;5011092;28;20411;-68
2022/09/03 03:43:53;;;;;;;6.90;1.38;;;;;;;11.68;48.88;101321.63;5010781;28;20124;-68
2022/09/03 03:46:22;;;;;;;3.40;1.23;;;;;;;11.72;48.65;101317.63;5011632;28;20061;-68
2022/09/03 03:48:50;;;;;;;4.75;1.50;;;;;;;11.71;48.58;101313.28;5013410;28;20052;-68
2022/09/03 03:51:18;;;;;;;7.07;1.67;;;;;;;11.75;48.72;101319.19;5011183;28;20132;-68
2022/09/03 03:53:45;;;;;;;7.40;1.92;;;;;;;11.54;48.99;101316.75;5009816;28;20061;-68
2022/09/03 03:56:13;;;;;;;5.72;1.65;;;;;;;11.46;49.54;101313.00;5024785;28;20096;-68
2022/09/03 03:58:42;;;;;;;5.40;1.55;;;;;;;11.59;48.89;101318.00;5010705;28;20560;-68
2022/09/03 04:01:15;;;;;;;6.20;1.42;;;;;;;11.49;49.19;101314.53;5021579;28;20477;-69
2022/09/03 04:03:42;;;;;;;2.70;1.33;;;;;;;11.60;49.04;101310.78;5011156;28;20197;-69
2022/09/03 04:06:11;;;;;;;3.72;1.33;;;;;;;11.73;48.58;101315.81;5012208;28;20045;-69
2022/09/03 04:08:39;;;;;;;2.95;1.33;;;;;;;11.59;48.91;101311.78;5012450;28;20048;-69
2022/09/03 04:11:09;;;;;;;5.45;1.60;;;;;;;11.21;49.82;101309.19;5011227;28;20041;-67
2022/09/03 04:13:38;;;;;;;10.85;2.10;;;;;;;11.48;49.23;101314.69;5012424;28;20048;-69
2022/09/03 04:16:19;;;;;;;3.22;1.52;;;;;;;11.44;49.24;101304.22;5011029;28;20124;-69
2022/09/03 04:18:48;;;;;;;5.55;1.70;;;;;;;11.52;49.12;101305.31;5011178;28;20049;-69
2022/09/03 04:21:17;;;;;;;3.50;1.27;;;;;;;11.45;49.32;101316.69;5011364;28;20046;-68
2022/09/03 04:23:46;;;;;;;6.75;1.80;;;;;;;11.50;49.29;101310.84;5010665;28;20129;-68
2022/09/03 04:26:16;;;;;;;8.90;1.70;;;;;;;11.21;50.19;101303.81;5011450;28;20132;-69
2022/09/03 04:28:44;;;;;;;3.65;1.60;;;;;;;11.26;49.80;101298.00;5024633;28;20132;-68
2022/09/03 04:31:13;;;;;;;5.38;1.83;;;;;;;11.38;49.86;101309.41;5023884;28;20052;-68
2022/09/03 04:33:41;;;;;;;17.10;2.60;;;;;;;11.18;50.10;101304.13;5028762;28;20050;-69
2022/09/03 04:36:12;;;;;;;4.85;2.00;;;;;;;11.40;49.70;101304.69;5011606;28;20069;-69
2022/09/03 04:38:41;;;;;;;8.00;1.67;;;;;;;11.36;49.86;101306.00;5013060;28;20056;-69
2022/09/03 04:41:10;;;;;;;4.13;1.60;;;;;;;11.36;49.90;101301.47;5013951;28;20062;-69
2022/09/03 04:43:37;;;;;;;6.38;2.00;;;;;;;11.05;50.70;101303.63;5014295;28;20105;-69
2022/09/03 04:46:06;;;;;;;6.60;1.67;;;;;;;11.28;50.19;101309.44;5014629;28;20073;-69
2022/09/03 04:48:42;;;;;;;5.63;2.40;;;;;;;11.20;50.57;101312.00;5014315;28;20050;-69
2022/09/03 04:51:12;;;;;;;4.68;2.15;;;;;;;11.41;50.17;101312.63;5007157;28;20042;-69
2022/09/03 04:53:41;;;;;;;7.65;2.20;;;;;;;11.41;50.18;101303.69;5014819;28;20073;-69
2022/09/03 04:56:21;;;;;;;6.32;1.88;;;;;;;11.22;50.62;101300.13;5017372;28;20137;-68
2022/09/03 04:58:52;;;;;;;8.18;1.83;;;;;;;11.27;50.49;101307.72;5029037;28;20468;-69
2022/09/03 05:01:21;;;;;;;9.18;2.05;;;;;;;11.56;50.12;101307.56;5030824;28;20053;-69
2022/09/03 05:03:51;;;;;;;4.65;1.92;;;;;;;11.57;49.79;101311.09;5027330;28;20053;-69
2022/09/03 05:06:17;;;;;;;9.50;2.20;;;;;;;11.59;49.92;101311.78;5019924;28;20057;-69
2022/09/03 05:08:49;;;;;;;4.72;1.92;;;;;;;11.50;50.20;101308.16;5015843;28;20471;-69
2022/09/03 05:11:16;;;;;;;8.05;1.70;;;;;;;11.34;50.69;101308.81;5027827;28;20046;-69
2022/09/03 05:13:46;;;;;;;5.55;2.20;;;;;;;11.43;50.62;101313.28;5013443;28;20134;-69
2022/09/03 05:16:12;;;;;;;5.97;1.67;;;;;;;11.64;50.34;101304.94;5013632;28;20073;-69
2022/09/03 05:18:41;;;;;;;6.80;1.60;;;;;;;11.43;50.90;101312.44;5014023;28;20048;-69
2022/09/03 05:21:09;;;;;;;5.20;2.05;;;;;;;11.68;50.12;101309.03;5014084;28;20046;-69
2022/09/03 05:23:38;;;;;;;7.00;2.10;;;;;;;11.50;50.81;101308.16;5021359;28;20133;-69
2022/09/03 05:26:10;;;;;;;7.60;1.92;;;;;;;11.66;50.66;101323.66;5033221;28;20069;-69
2022/09/03 05:28:39;;;;;;;4.13;1.73;;;;;;;11.58;50.75;101323.53;5033741;28;20488;-69
2022/09/03 05:31:11;;;;;;;4.50;1.50;;;;;;;11.83;50.44;101319.25;5034275;28;20137;-69
2022/09/03 05:33:44;;;;;;;4.47;1.95;;;;;;;11.69;50.61;101315.28;5023245;28;20401;-69
2022/09/03 05:36:13;;;;;;;5.15;2.03;;;;;;;11.83;50.52;101317.44;5014894;28;20124;-69
2022/09/03 05:38:39;;;;;;;6.20;2.00;;;;;;;11.59;51.52;101322.53;5021513;28;20128;-69
2022/09/03 05:41:08;;;;;;;10.77;2.28;;;;;;;11.68;51.12;101311.72;5033473;28;20132;-69
2022/09/03 05:43:36;;;;;;;5.72;1.90;;;;;;;11.50;51.85;101315.38;5033366;28;20549;-69
2022/09/03 05:46:05;;;;;;;7.53;2.10;;;;;;;11.89;50.61;101311.41;5028319;28;20112;-69
2022/09/03 05:48:37;;;;;;;3.25;2.03;;;;;;;11.84;50.97;101315.59;5028015;28;20053;-69
2022/09/03 05:51:03;;;;;;;;;;;;;;;12.19;50.18;101313.88;5034482;28;20465;-69
2022/09/03 05:53:32;;;;;;;7.68;2.00;;;;;;;12.38;49.50;101322.59;5034349;28;20409;-69
2022/09/03 05:56:02;;;;;;;8.50;2.03;;;;;;;12.27;49.87;101320.13;5033094;28;20120;-69
2022/09/03 05:58:33;;;;;;;6.28;1.98;;;;;;;12.45;49.56;101325.47;5034045;28;20136;-69
2022/09/03 06:01:09;;;;;;;4.03;1.88;;;;;;;12.17;50.35;101320.25;5033092;28;20051;-69
2022/09/03 06:03:36;;;;;;;5.55;2.30;;;;;;;12.20;50.31;101316.38;5033397;28;20060;-69
2022/09/03 06:06:04;;;;;;;4.05;2.05;;;;;;;12.16;50.40;101315.84;5032807;28;20123;-70
2022/09/03 06:08:30;;;;;;;5.85;2.47;;;;;;;12.47;50.10;101320.78;5033319;28;20469;-69
2022/09/03 06:10:58;;;;;;;6.07;2.20;;;;;;;12.37;50.47;101318.19;5032461;28;20128;-69
2022/09/03 06:13:25;;;;;;;5.57;2.20;;;;;;;12.46;49.77;101324.50;5032923;28;20057;-69
2022/09/03 06:16:17;;;;;;;6.60;2.30;;;;;;;12.56;50.07;101316.31;5033008;28;20560;-69
2022/09/03 06:18:56;;;;;;;6.18;1.92;;;;;;;12.61;50.06;101319.38;5031669;28;20050;-69
2022/09/03 06:21:23;;;;;;;6.47;2.00;;;;;;;12.36;50.58;101327.28;5032389;28;20141;-69
2022/09/03 06:23:51;;;;;;;6.07;2.10;;;;;;;12.49;50.31;101317.97;5033115;28;20045;-69
2022/09/03 06:26:19;;;;;;;6.15;1.88;;;;;;;12.62;49.93;101318.34;5033024;28;20049;-69
2022/09/03 06:28:47;;;;;;;8.00;2.22;;;;;;;12.43;50.54;101319.41;5033009;28;20138;-69
2022/09/03 06:31:18;;;;;;;7.10;1.85;;;;;;;12.24;50.85;101323.13;5033300;28;20128;-69
2022/09/03 06:33:46;;;;;;;8.93;2.00;;;;;;;12.43;50.61;101323.97;5033173;28;20132;-69
2022/09/03 06:36:15;;;;;;;9.75;2.58;;;;;;;12.72;49.99;101329.00;5032926;28;20064;-69
2022/09/03 06:38:43;;;;;;;4.80;2.10;;;;;;;12.28;50.78;101323.66;5032355;28;20045;-69
2022/09/03 06:41:13;;;;;;;4.97;1.83;;;;;;;12.44;50.69;101325.66;5033189;28;20045;-69
2022/09/03 06:43:41;;;;;;;6.43;1.90;;;;;;;12.75;49.97;101326.88;5032771;28;20065;-69
2022/09/03 06:46:16;;;;;;;4.78;1.98;;;;;;;12.60;50.42;101331.97;5014883;28;20096;-69
2022/09/03 06:48:43;;;;;;;6.20;2.70;;;;;;;12.72;49.82;101335.22;5032525;28;20045;-69
2022/09/03 06:51:19;;;;;;;3.22;2.10;;;;;;;12.55;50.22;101336.97;5032705;28;20068;-69
2022/09/03 06:53:51;;;;;;;6.00;2.00;;;;;;;12.67;50.10;101334.88;5032788;28;20120;-69
2022/09/03 06:56:25;;;;;;;5.90;2.05;;;;;;;12.90;49.64;101329.81;5031867;28;20109;-69
2022/09/03 06:58:57;;;;;;;7.75;2.38;;;;;;;12.90;49.69;101328.97;5032049;28;20053;-69
2022/09/03 07:01:29;;;;;;;7.75;1.95;;;;;;;12.96;49.44;101333.72;5030974;28;20129;-69
2022/09/03 07:04:02;;;;;;;5.43;1.85;;;;;;;12.84;49.74;101330.47;5031529;28;20049;-69
2022/09/03 07:06:31;;;;;;;4.30;1.70;;;;;;;12.77;50.04;101322.19;5031782;28;20133;-69
2022/09/03 07:08:58;;;;;;;5.70;1.98;;;;;;;13.17;49.06;101328.75;5031942;28;20055;-69
2022/09/03 07:11:30;;;;;;;5.40;1.80;;;;;;;13.36;48.72;101324.97;5031617;28;20342;-69
2022/09/03 07:13:57;;;;;;;7.55;2.22;;;;;;;13.41;48.50;101324.47;5031462;28;20124;-69
2022/09/03 07:16:33;;;;;;;4.28;1.83;;;;;;;13.65;48.13;101327.22;5032191;28;20132;-69
2022/09/03 07:19:00;;;;;;;15.13;2.78;;;;;;;13.14;49.25;101325.53;5030645;28;20046;-69
2022/09/03 07:21:29;;;;;;;7.20;2.03;;;;;;;13.41;48.46;101324.47;5023080;28;20124;-69
2022/09/03 07:23:57;;;;;;;6.32;1.60;;;;;;;13.26;48.83;101335.88;5044616;28;20049;-69
2022/09/03 07:26:29;;;;;;;3.78;1.67;;;;;;;13.64;48.23;101336.31;5031595;28;20516;-69
2022/09/03 07:28:56;;;;;;;5.38;1.70;;;;;;;13.39;48.63;101338.13;5031515;28;20057;-69
2022/09/03 07:31:32;;;;;;;10.43;1.85;;;;;;;13.61;48.15;101342.03;5031330;28;20075;-69
2022/09/03 07:34:05;;;;;;;6.10;1.80;;;;;;;14.03;47.46;101338.41;5031445;28;20552;-69
2022/09/03 07:36:41;;;;;;;6.22;2.10;;;;;;;13.88;47.72;101338.25;5031338;28;20073;-69
2022/09/03 07:39:12;;;;;;;9.00;2.25;;;;;;;14.00;47.28;101333.34;5031415;28;20054;-69
2022/09/03 07:41:42;;;;;;;6.63;1.95;;;;;;;13.98;47.32;101336.22;5031157;28;20136;-69
2022/09/03 07:44:09;;;;;;;6.07;1.92;;;;;;;14.05;47.39;101336.41;5030956;28;20144;-69
2022/09/03 07:46:36;;;;;;;5.82;1.95;;;;;;;14.52;46.26;101341.09;5031392;28;20052;-69
2022/09/03 07:49:05;;;;;;;7.32;1.90;;;;;;;14.51;46.33;101342.09;5031356;28;20065;-69
2022/09/03 07:51:37;;;;;;;3.72;1.60;;;;;;;14.57;46.34;101341.44;5031035;28;20056;-69
2022/09/03 07:54:07;;;;;;;4.82;1.80;;;;;;;14.90;45.42;101347.63;5031219;28;20065;-69
2022/09/03 07:56:34;;;;;;;8.82;2.30;;;;;;;14.61;46.25;101344.63;5030842;28;20127;-69
2022/09/03 07:59:02;;;;;;;5.18;1.80;;;;;;;14.66;46.18;101340.38;5030878;28;20048;-69
2022/09/03 08:01:32;;;;;;;4.22;1.92;;;;;;;14.68;46.14;101343.75;5028556;28;20092;-69
2022/09/03 08:04:00;;;;;;;6.93;1.60;;;;;;;14.67;46.49;101342.09;5031249;28;20076;-69
2022/09/03 08:06:29;;;;;;;3.88;1.83;;;;;;;14.84;46.26;101340.19;5031019;28;20096;-69
2022/09/03 08:09:02;;;;;;;6.55;2.03;;;;;;;14.71;46.61;101339.88;5030706;28;20485;-69
2022/09/03 08:11:35;;;;;;;5.32;1.60;;;;;;;14.79;46.39;101341.75;5030448;28;20064;-69
2022/09/03 08:14:05;;;;;;;5.70;1.85;;;;;;;14.88;46.02;101348.81;5024090;28;20053;-69
2022/09/03 08:16:43;;;;;;;5.68;1.90;;;;;;;14.89;45.82;101345.09;5029785;28;20061;-69
2022/09/03 08:19:12;;;;;;;10.75;1.70;;;;;;;14.91;45.70;101343.03;5030808;28;20053;-69
2022/09/03 08:21:40;;;;;;;6.05;2.28;;;;;;;15.54;44.32;101338.56;5031369;28;20057;-69
2022/09/03 08:24:08;;;;;;;4.38;1.63;;;;;;;15.75;43.57;101340.66;5030369;28;20400;-69
2022/09/03 08:26:36;;;;;;;7.18;1.90;;;;;;;15.68;43.78;101329.72;5031529;28;20068;-69
2022/09/03 08:29:04;;;;;;;6.70;1.55;;;;;;;16.32;42.33;101340.22;5027975;28;20366;-70
2022/09/03 08:31:32;;;;;;;10.48;1.75;;;;;;;17.50;39.77;101337.53;5030821;28;20124;-70
2022/09/03 08:34:05;;;;;;;3.05;1.58;;;;;;;17.40;39.52;101331.56;5030947;28;20392;-70
2022/09/03 08:36:34;;;;;;;5.53;1.75;;;;;;;17.70;39.24;101334.22;5030971;28;20053;-70
2022/09/03 08:39:03;;;;;;;6.68;1.58;;;;;;;18.48;37.47;101335.16;5026965;28;20132;-70
2022/09/03 08:41:52;;;;;;;5.70;1.65;;;;;;;18.13;37.93;101321.47;5031420;28;20073;-70
2022/09/03 08:44:55;;;;;;;4.63;1.80;;;;;;;18.57;37.19;101322.28;5031790;28;20392;-71
2022/09/03 08:47:43;;;;;;;4.95;1.60;;;;;;;19.01;36.74;101319.22;5022994;28;20452;-71
2022/09/03 08:50:27;;;;;;;5.32;1.77;;;;;;;19.15;35.56;101317.41;5026604;28;20567;-70
2022/09/03 08:53:08;;;;;;;9.63;1.90;;;;;;;20.61;33.32;101325.81;5011933;28;20132;-70
2022/09/03 08:55:53;;;;;;;9.90;1.67;;;;;;;20.57;33.08;101309.06;5011747;28;20137;-70
2022/09/03 08:58:24;;;;;;;5.97;1.80;;;;;;;20.23;33.82;101318.28;5011564;28;20114;-70
2022/09/03 09:01:13;;;;;;;7.57;1.80;;;;;;;19.89;34.50;101317.41;5011555;28;20378;-71
2022/09/03 09:04:02;;;;;;;6.25;1.95;;;;;;;19.98;34.82;101319.97;5010414;28;20045;-70
2022/09/03 09:06:41;;;;;;;7.43;1.70;;;;;;;20.41;33.92;101315.78;5010011;28;20076;-70
2022/09/03 09:10:04;;;;;;;6.13;1.75;;;;;;;20.42;33.44;101314.75;5011661;28;20517;-71
2022/09/03 09:12:37;;;;;;;6.90;2.00;;;;;;;20.30;33.00;101316.38;4983503;28;20134;-70
2022/09/03 09:15:33;;;;;;;6.78;1.70;;;;;;;20.94;31.45;101316.72;4989045;28;20122;-72
2022/09/03 09:18:18;;;;;;;7.93;1.90;;;;;;;21.70;30.91;101307.78;4982153;28;20054;-71
2022/09/03 09:20:51;;;;;;;6.70;1.95;;;;;;;22.14;30.11;101297.81;4989255;28;20578;-71
2022/09/03 09:23:32;;;;;;;4.75;1.63;;;;;;;22.56;29.82;101302.47;4990275;28;20060;-71
2022/09/03 09:26:05;;;;;;;4.45;1.85;;;;;;;22.11;30.29;101303.72;4992839;28;20066;-71
2022/09/03 09:28:37;;;;;;;7.78;1.45;;;;;;;23.07;28.35;101300.44;4977583;28;20137;-71
2022/09/03 09:31:06;;;;;;;5.03;1.60;;;;;;;23.79;27.75;101297.00;4992473;28;20052;-71
2022/09/03 09:33:33;;;;;;;7.72;1.70;;;;;;;23.52;27.78;101293.78;4993051;28;20053;-70
2022/09/03 09:36:04;;;;;;;9.88;1.60;;;;;;;23.12;28.34;101289.69;4992969;28;20050;-70
2022/09/03 09:38:35;;;;;;;4.18;1.30;;;;;;;23.64;27.37;101286.41;4992662;28;20487;-71
2022/09/03 09:41:19;;;;;;;3.80;1.60;;;;;;;23.26;28.55;101288.44;4990421;28;20046;-70
2022/09/03 09:43:46;;;;;;;6.65;1.63;;;;;;;22.78;29.07;101281.00;5007210;28;20046;-73
2022/09/03 09:46:20;;;;;;;8.73;1.70;;;;;;;22.52;29.37;101273.09;5011105;28;20046;-71
2022/09/03 09:48:57;;;;;;;7.70;1.75;;;;;;;22.41;28.68;101276.53;5013603;28;20066;-71
2022/09/03 09:51:30;;;;;;;4.63;1.63;;;;;;;22.95;28.20;101272.19;5014377;28;20052;-70
2022/09/03 09:54:26;;;;;;;10.65;1.45;;;;;;;22.03;28.92;101270.16;5014841;28;20065;-70
2022/09/03 09:57:02;;;;;;;12.77;1.58;;;;;;;22.84;27.82;101275.69;5014084;28;20072;-71
2022/09/03 09:59:28;;;;;;;4.38;1.10;;;;;;;24.15;25.59;101277.63;4999444;28;20045;-70
2022/09/03 10:02:27;;;;;;;5.30;1.35;;;;;;;24.49;25.30;101286.13;5018349;28;20048;-71
2022/09/03 10:05:00;;;;;;;4.47;1.50;;;;;;;22.85;27.38;101266.44;5013845;28;20077;-70
2022/09/03 10:07:31;;;;;;;5.78;1.42;;;;;;;23.20;27.36;101269.38;5013819;28;20066;-69
2022/09/03 10:10:28;;;;;;;3.80;1.60;;;;;;;23.60;26.58;101264.16;5013556;28;20097;-71
2022/09/03 10:13:11;;;;;;;4.57;1.60;;;;;;;23.48;26.50;101260.56;5001319;28;20441;-70
2022/09/03 10:15:40;;;;;;;2.45;1.42;;;;;;;24.11;25.36;101259.97;5012693;28;20144;-69
2022/09/03 10:18:27;;;;;;;5.28;1.55;;;;;;;23.41;26.65;101262.56;5013620;28;20464;-68
2022/09/03 10:21:06;;;;;;;5.50;1.50;;;;;;;24.00;24.17;101258.06;5012702;28;20410;-69
2022/09/03 10:23:40;;;;;;;7.35;1.35;;;;;;;22.74;25.46;101259.78;5012930;28;20046;-69
2022/09/03 10:26:13;;;;;;;8.73;1.33;;;;;;;21.43;26.67;101258.00;5012415;28;20132;-68
2022/09/03 10:28:41;;;;;;;11.75;1.52;;;;;;;20.99;27.38;101248.72;5013762;28;20128;-69
2022/09/03 10:31:30;;;;;;;5.65;1.30;;;;;;;20.47;28.65;101258.75;5012987;28;20405;-69
2022/09/03 10:34:06;;;;;;;6.13;1.40;;;;;;;20.11;29.35;101265.50;5013883;28;20042;-69
2022/09/03 10:36:45;;;;;;;11.63;1.70;;;;;;;20.82;28.49;101257.38;5013305;28;20050;-69
2022/09/03 10:39:49;;;;;;;2.28;1.33;;;;;;;21.35;28.39;101246.25;5014884;28;20124;-69
2022/09/03 10:42:41;;;;;;;3.75;1.38;;;;;;;20.37;29.48;101249.09;5013345;28;20054;-70
2022/09/03 10:45:16;;;;;;;4.75;1.60;;;;;;;20.52;29.56;101253.50;5003661;28;20125;-70
2022/09/03 10:48:03;;;;;;;15.77;1.80;;;;;;;19.62;30.83;101247.63;5013133;28;20068;-70
2022/09/03 10:50:51;;;;;;;5.03;1.42;;;;;;;19.26;31.90;101236.03;5006825;28;20474;-71
2022/09/03 10:53:30;;;;;;;5.45;1.40;;;;;;;19.29;31.99;101239.41;5012644;28;20049;-70
2022/09/03 10:56:03;;;;;;;3.13;1.70;;;;;;;20.00;31.01;101230.69;5013825;28;20171;-70
2022/09/03 10:59:00;;;;;;;5.28;1.45;;;;;;;20.72;29.52;101227.00;5014542;28;20066;-71
2022/09/03 11:01:35;;;;;;;12.43;3.33;;;;;;;20.98;29.34;101227.97;5014629;28;20061;-70
2022/09/03 11:04:24;;;;;;;19.88;5.70;;;;;;;20.60;29.09;101220.56;5013477;28;20385;-70
2022/09/03 11:07:01;;;;;;;6.57;2.20;;;;;;;20.90;28.69;101224.44;5013065;28;20074;-70
2022/09/03 11:09:38;;;;;;;2.28;1.48;;;;;;;20.63;29.39;101220.16;5012735;28;20137;-70
2022/09/03 11:12:14;;;;;;;4.43;1.20;;;;;;;20.38;30.12;101207.16;5012969;28;20077;-71
2022/09/03 11:14:45;;;;;;;5.32;1.60;;;;;;;20.30;29.69;101215.56;5012645;28;20125;-72
2022/09/03 11:17:27;;;;;;;10.30;1.48;;;;;;;19.95;29.89;101217.72;5013020;28;20042;-71
2022/09/03 11:20:19;;;;;;;4.88;1.10;;;;;;;20.03;29.32;101216.66;5013619;28;20056;-72
2022/09/03 11:22:48;;;;;;;7.53;1.23;;;;;;;20.55;28.75;101213.03;5012109;28;20137;-71
2022/09/03 11:25:18;;;;;;;5.15;1.30;;;;;;;20.03;28.61;101214.78;5012165;28;20144;-72
2022/09/03 11:27:55;;;;;;;;;;;;;;;20.31;28.74;101214.50;5013084;28;20378;-71
2022/09/03 11:30:39;;;;;;;3.15;1.42;;;;;;;19.54;29.61;101207.84;5024969;28;19921;-71
2022/09/03 11:33:10;;;;;;;2.35;1.13;;;;;;;20.19;28.28;101208.06;5032017;28;20048;-71
2022/09/03 11:35:40;;;;;;;2.72;1.15;;;;;;;21.31;26.63;101204.06;5031731;28;20084;-70
2022/09/03 11:38:15;;;;;;;4.28;1.33;;;;;;;21.30;26.90;101205.16;5031915;28;20045;-72
2022/09/03 11:40:59;;;;;;;3.85;1.23;;;;;;;19.89;29.01;101197.59;5031841;28;20076;-70
2022/09/03 11:43:29;;;;;;;2.63;1.45;;;;;;;19.99;28.95;101199.91;5028143;28;20127;-70
2022/09/03 11:46:20;;;;;;;7.80;1.52;;;;;;;19.86;28.88;101192.56;5028602;28;20048;-71
2022/09/03 11:48:50;;;;;;;3.92;1.05;;;;;;;19.80;28.22;101204.34;5031876;28;20033;-71
2022/09/03 11:51:20;;;;;;;4.32;1.27;;;;;;;20.38;27.60;101190.81;5028507;28;20125;-71
2022/09/03 11:53:57;;;;;;;3.50;1.40;;;;;;;21.08;26.96;101184.69;5031547;28;20069;-71
2022/09/03 11:56:24;;;;;;;1.98;0.90;;;;;;;21.77;26.14;101186.53;5029984;28;20050;-71
2022/09/03 11:59:01;;;;;;;2.92;1.40;;;;;;;23.24;24.23;101180.25;5031297;28;20131;-71
2022/09/03 12:01:28;;;;;;;4.07;1.60;;;;;;;22.70;24.03;101180.09;5031612;28;20513;-71